Time;durP1;ratioP1;P1;durP2;ratioP2;P2;SDS_P1;SDS_P2;PMS_P1;PMS_P2;Temp;Humidity;BMP_temperature;BMP_pressure;BME280_temperature;BME280_humidity;BME280_pressure;Samples;Min_cycle;Max_cycle;Signal;HPM_P1;HPM_P2
2021/10/17 00:01:55;;;;;;;11.30;10.10;;;5.20;84.40;;;;;;5213663;28;20053;-67
2021/10/17 00:04:27;;;;;;;10.52;9.45;;;5.20;84.40;;;;;;5221433;28;20174;-67
2021/10/17 00:06:59;;;;;;;10.50;9.38;;;5.10;84.10;;;;;;5213448;28;20572;-67
2021/10/17 00:09:31;;;;;;;10.98;9.80;;;5.00;84.40;;;;;;5214300;28;20830;-67
2021/10/17 00:12:11;;;;;;;10.68;9.27;;;5.00;84.60;;;;;;5222428;28;20052;-67
2021/10/17 00:14:43;;;;;;;12.50;9.25;;;5.00;84.40;;;;;;5214508;28;20064;-66
2021/10/17 00:17:15;;;;;;;12.15;8.82;;;5.00;84.60;;;;;;5212650;28;20045;-67
2021/10/17 00:19:47;;;;;;;11.32;9.27;;;5.00;84.50;;;;;;5213277;28;20037;-67
2021/10/17 00:22:19;;;;;;;9.70;8.70;;;5.00;85.00;;;;;;5212063;28;20959;-68
2021/10/17 00:24:51;;;;;;;9.20;8.27;;;5.00;84.20;;;;;;5214088;28;20878;-67
2021/10/17 00:27:22;;;;;;;10.68;9.50;;;5.00;84.10;;;;;;5212970;28;20049;-67
2021/10/17 00:29:55;;;;;;;10.35;9.25;;;5.00;84.20;;;;;;5212670;28;20068;-67
2021/10/17 00:32:26;;;;;;;11.25;9.52;;;5.00;85.90;;;;;;5212043;28;20548;-67
2021/10/17 00:35:00;;;;;;;11.02;9.75;;;4.90;88.10;;;;;;5212278;28;20156;-67
2021/10/17 00:37:33;;;;;;;10.80;9.50;;;4.90;88.30;;;;;;5213789;28;20064;-67
2021/10/17 00:40:11;;;;;;;11.00;9.55;;;4.90;87.90;;;;;;5213228;28;20065;-68
2021/10/17 00:42:46;;;;;;;11.38;10.05;;;4.90;87.60;;;;;;5216790;28;20044;-66
2021/10/17 00:45:20;;;;;;;12.90;9.77;;;4.90;86.60;;;;;;5217141;28;20558;-68
2021/10/17 00:47:53;;;;;;;10.35;9.25;;;4.80;86.30;;;;;;5215896;28;20141;-68
2021/10/17 00:50:26;;;;;;;10.90;9.80;;;4.80;85.80;;;;;;5232467;28;20145;-67
2021/10/17 00:52:58;;;;;;;10.43;9.32;;;4.80;86.50;;;;;;5215935;28;20528;-67
2021/10/17 00:55:30;;;;;;;10.43;9.32;;;4.80;85.90;;;;;;5218125;28;20091;-66
2021/10/17 00:58:22;;;;;;;9.68;8.63;;;4.70;86.00;;;;;;5217251;28;20055;-67
2021/10/17 01:00:55;;;;;;;10.85;9.35;;;4.80;85.80;;;;;;5216517;28;20049;-67
2021/10/17 01:03:28;;;;;;;10.93;9.82;;;4.80;86.20;;;;;;5208043;28;20225;-67
2021/10/17 01:05:59;;;;;;;11.18;9.82;;;4.80;87.30;;;;;;5215610;28;20049;-67
2021/10/17 01:08:31;;;;;;;11.07;9.13;;;4.80;88.00;;;;;;5216357;28;20048;-68
2021/10/17 01:11:04;;;;;;;10.85;9.43;;;4.70;88.70;;;;;;5198740;28;20720;-68
2021/10/17 01:13:36;;;;;;;10.20;8.68;;;4.80;89.00;;;;;;5217419;28;20529;-67
2021/10/17 01:16:08;;;;;;;10.50;9.15;;;4.70;89.00;;;;;;5206635;28;20521;-67
2021/10/17 01:18:48;;;;;;;10.63;9.10;;;4.70;88.90;;;;;;5224189;28;20047;-68
2021/10/17 01:21:24;;;;;;;10.25;9.15;;;4.70;89.10;;;;;;5231708;28;20136;-67
2021/10/17 01:23:58;;;;;;;10.00;9.00;;;4.70;88.90;;;;;;5232000;28;20079;-68
2021/10/17 01:26:31;;;;;;;10.07;8.52;;;4.70;89.40;;;;;;5205813;28;20053;-68
2021/10/17 01:29:04;;;;;;;10.85;9.15;;;4.70;89.60;;;;;;5215338;28;20136;-68
2021/10/17 01:31:54;;;;;;;15.10;10.45;;;4.70;89.40;;;;;;5213526;28;20053;-67
2021/10/17 01:34:27;;;;;;;11.15;9.05;;;4.70;90.00;;;;;;5193813;28;20048;-68
2021/10/17 01:36:59;;;;;;;10.45;9.32;;;4.70;89.30;;;;;;5215869;28;20056;-67
2021/10/17 01:39:31;;;;;;;10.23;9.13;;;4.70;89.50;;;;;;5206084;28;20495;-67
2021/10/17 01:42:04;;;;;;;11.40;9.35;;;4.70;89.70;;;;;;5230363;28;20151;-67
2021/10/17 01:44:44;;;;;;;12.18;9.85;;;4.70;89.60;;;;;;5223577;28;20128;-67
2021/10/17 01:47:16;;;;;;;11.43;10.23;;;4.70;89.80;;;;;;5230239;28;20453;-67
2021/10/17 01:49:48;;;;;;;9.98;8.98;;;4.70;89.80;;;;;;5215849;28;20091;-67
2021/10/17 01:52:20;;;;;;;10.18;9.07;;;4.70;89.70;;;;;;5222654;28;20114;-67
2021/10/17 01:54:54;;;;;;;10.30;9.00;;;4.70;89.50;;;;;;5215001;28;20075;-67
2021/10/17 01:57:28;;;;;;;10.25;9.25;;;4.80;89.70;;;;;;5213713;28;20164;-70
2021/10/17 02:00:00;;;;;;;10.02;8.75;;;4.70;89.30;;;;;;5215358;28;20076;-68
2021/10/17 02:02:44;;;;;;;10.07;8.70;;;4.70;88.90;;;;;;5216206;28;20040;-68
2021/10/17 02:05:24;;;;;;;;;;;4.70;89.10;;;;;;5222139;28;20167;-67
2021/10/17 02:08:00;;;;;;;10.15;9.15;;;4.70;89.60;;;;;;5213768;28;19924;-67
2021/10/17 02:10:32;;;;;;;10.23;9.23;;;4.60;89.50;;;;;;5222496;28;20073;-67
2021/10/17 02:13:12;;;;;;;10.50;9.40;;;4.60;89.00;;;;;;5214385;28;20075;-67
2021/10/17 02:15:45;;;;;;;11.38;9.25;;;4.70;88.60;;;;;;5210209;28;20041;-67
2021/10/17 02:18:17;;;;;;;11.50;9.95;;;4.70;88.60;;;;;;5192242;28;20053;-68
2021/10/17 02:20:52;;;;;;;11.25;9.95;;;4.60;88.00;;;;;;5216877;28;20040;-68
2021/10/17 02:23:25;;;;;;;11.85;9.75;;;4.60;87.80;;;;;;5213790;28;20634;-67
2021/10/17 02:25:58;;;;;;;10.40;8.95;;;4.60;87.20;;;;;;5212991;28;20045;-67
2021/10/17 02:28:50;;;;;;;11.88;9.98;;;4.60;86.80;;;;;;5216426;28;20419;-67
2021/10/17 02:31:22;;;;;;;10.60;9.50;;;4.50;86.60;;;;;;5215307;28;20094;-67
2021/10/17 02:33:57;;;;;;;10.85;9.38;;;4.50;86.20;;;;;;5221631;28;20138;-67
2021/10/17 02:36:29;;;;;;;9.90;8.90;;;4.50;86.00;;;;;;5206185;28;20037;-67
2021/10/17 02:39:01;;;;;;;10.40;9.30;;;4.50;85.80;;;;;;5213486;28;20044;-67
2021/10/17 02:41:33;;;;;;;10.60;9.50;;;4.40;85.50;;;;;;5213956;28;20060;-67
2021/10/17 02:44:05;;;;;;;10.07;9.07;;;4.40;86.10;;;;;;5197041;28;20128;-67
2021/10/17 02:46:37;;;;;;;10.75;9.50;;;4.40;85.40;;;;;;5229498;28;20077;-68
2021/10/17 02:49:09;;;;;;;10.10;9.10;;;4.40;86.50;;;;;;5215144;28;20049;-67
2021/10/17 02:51:41;;;;;;;10.13;9.05;;;4.30;85.80;;;;;;5209513;28;20052;-67
2021/10/17 02:54:17;;;;;;;9.65;8.55;;;4.20;85.20;;;;;;5193212;28;20404;-67
2021/10/17 02:56:53;;;;;;;10.02;9.02;;;4.20;84.80;;;;;;5209193;28;20143;-68
2021/10/17 02:59:29;;;;;;;9.80;8.77;;;4.10;85.40;;;;;;5201778;28;20045;-67
2021/10/17 03:02:01;;;;;;;10.98;8.23;;;3.90;87.80;;;;;;5197717;28;20073;-67
2021/10/17 03:04:33;;;;;;;9.88;8.70;;;3.80;87.20;;;;;;5189772;28;20056;-67
2021/10/17 03:07:06;;;;;;;9.38;8.35;;;3.90;86.70;;;;;;5207583;28;20126;-67
2021/10/17 03:09:48;;;;;;;10.18;8.85;;;3.90;86.70;;;;;;5220626;28;20056;-67
2021/10/17 03:12:20;;;;;;;9.77;8.50;;;3.90;86.20;;;;;;5215047;28;20060;-67
2021/10/17 03:14:55;;;;;;;9.98;8.98;;;4.00;86.30;;;;;;5213665;28;20053;-67
2021/10/17 03:17:27;;;;;;;10.02;8.90;;;4.00;86.50;;;;;;5207552;28;20682;-67
2021/10/17 03:19:59;;;;;;;9.88;8.13;;;4.00;86.20;;;;;;5194769;28;20053;-68
2021/10/17 03:22:38;;;;;;;9.55;8.00;;;4.00;86.70;;;;;;5212829;28;20049;-67
2021/10/17 03:25:10;;;;;;;9.20;8.20;;;4.00;86.00;;;;;;5214386;28;20051;-67
2021/10/17 03:27:43;;;;;;;8.85;7.93;;;4.00;86.90;;;;;;5213688;28;20048;-67
2021/10/17 03:30:23;;;;;;;9.77;7.78;;;4.00;86.50;;;;;;5230174;28;20044;-67
2021/10/17 03:32:56;;;;;;;9.27;8.25;;;4.00;86.70;;;;;;5214445;28;20049;-68
2021/10/17 03:35:28;;;;;;;9.38;8.48;;;4.00;86.00;;;;;;5213165;28;20043;-67
2021/10/17 03:38:00;;;;;;;9.48;8.45;;;3.90;86.20;;;;;;5213878;28;20052;-67
2021/10/17 03:40:32;;;;;;;10.52;9.43;;;3.80;87.30;;;;;;5212996;28;20037;-68
2021/10/17 03:43:04;;;;;;;10.43;8.88;;;3.80;86.60;;;;;;5213465;28;20045;-68
2021/10/17 03:45:47;;;;;;;9.50;8.50;;;3.80;86.40;;;;;;5213841;28;20522;-68
2021/10/17 03:48:19;;;;;;;10.00;9.00;;;3.90;86.10;;;;;;5214185;28;20182;-67
2021/10/17 03:50:52;;;;;;;9.48;8.48;;;3.90;86.40;;;;;;5220172;28;20052;-67
2021/10/17 03:53:24;;;;;;;11.60;9.07;;;3.80;86.80;;;;;;5229739;28;20033;-68
2021/10/17 03:55:56;;;;;;;10.07;9.02;;;3.80;86.40;;;;;;5213730;28;20507;-68
2021/10/17 03:58:28;;;;;;;9.25;8.30;;;3.80;86.60;;;;;;5214183;28;20499;-67
2021/10/17 04:01:00;;;;;;;10.20;8.98;;;3.70;86.30;;;;;;5214020;28;20047;-67
2021/10/17 04:03:34;;;;;;;9.25;8.35;;;3.80;86.30;;;;;;5230396;28;20143;-67
2021/10/17 04:06:07;;;;;;;9.82;8.80;;;3.80;85.70;;;;;;5207291;28;20059;-67
2021/10/17 04:08:39;;;;;;;9.70;8.70;;;3.80;85.60;;;;;;5193506;28;20598;-67
2021/10/17 04:11:12;;;;;;;9.95;8.95;;;3.80;85.50;;;;;;5200906;28;20059;-67
2021/10/17 04:13:44;;;;;;;10.25;9.15;;;3.80;85.50;;;;;;5200021;28;20056;-68
2021/10/17 04:16:17;;;;;;;9.98;8.90;;;3.80;85.30;;;;;;5202778;28;20128;-67
2021/10/17 04:18:49;;;;;;;11.25;10.00;;;3.80;86.00;;;;;;5217682;28;20052;-68
2021/10/17 04:21:21;;;;;;;10.43;9.43;;;3.70;86.50;;;;;;5232402;28;20099;-67
2021/10/17 04:23:53;;;;;;;9.77;8.88;;;3.70;86.80;;;;;;5217897;28;20245;-68
2021/10/17 04:26:25;;;;;;;10.40;9.30;;;3.70;86.40;;;;;;5216220;28;20142;-67
2021/10/17 04:28:58;;;;;;;10.75;9.25;;;3.70;86.20;;;;;;5217877;28;20426;-67
2021/10/17 04:31:30;;;;;;;9.57;8.57;;;3.60;86.50;;;;;;5223884;28;20130;-67
2021/10/17 04:34:02;;;;;;;10.32;9.20;;;3.60;86.60;;;;;;5218780;28;20449;-67
2021/10/17 04:36:35;;;;;;;10.30;8.93;;;3.60;87.40;;;;;;5216006;28;20131;-67
2021/10/17 04:39:07;;;;;;;9.68;8.68;;;3.50;88.00;;;;;;5218387;28;20114;-67
2021/10/17 04:41:39;;;;;;;8.95;8.05;;;3.60;89.10;;;;;;5217044;28;20068;-69
2021/10/17 04:44:11;;;;;;;9.15;7.60;;;3.60;89.90;;;;;;5224400;28;20126;-67
2021/10/17 04:46:43;;;;;;;10.38;8.20;;;3.70;91.20;;;;;;5216908;28;20076;-67
2021/10/17 04:49:15;;;;;;;10.27;8.63;;;3.70;90.80;;;;;;5233982;28;20106;-67
2021/10/17 04:51:47;;;;;;;11.57;10.38;;;3.70;90.60;;;;;;5212727;28;20055;-67
2021/10/17 04:54:19;;;;;;;12.15;10.60;;;3.80;90.50;;;;;;5218353;28;20091;-68
2021/10/17 04:56:51;;;;;;;12.10;10.27;;;3.80;90.90;;;;;;5215414;28;20052;-67
2021/10/17 04:59:25;;;;;;;11.57;9.95;;;3.80;90.60;;;;;;5216885;28;20123;-67
2021/10/17 05:02:02;;;;;;;11.30;9.35;;;3.90;91.00;;;;;;5207419;28;20064;-68
2021/10/17 05:04:37;;;;;;;11.05;8.45;;;3.90;90.90;;;;;;5216380;28;20743;-67
2021/10/17 05:07:09;;;;;;;10.68;9.45;;;3.90;91.80;;;;;;5222398;28;20497;-68
2021/10/17 05:09:41;;;;;;;10.95;9.25;;;3.90;91.90;;;;;;5200544;28;20045;-67
2021/10/17 05:12:15;;;;;;;11.95;9.45;;;4.00;91.50;;;;;;5192647;28;20075;-67
2021/10/17 05:14:47;;;;;;;10.40;9.32;;;4.00;91.30;;;;;;5208567;28;20132;-67
2021/10/17 05:17:19;;;;;;;12.18;10.00;;;4.00;91.40;;;;;;5214460;28;20051;-67
2021/10/17 05:19:51;;;;;;;11.27;10.07;;;4.00;91.10;;;;;;5216040;28;20045;-67
2021/10/17 05:22:23;;;;;;;11.10;9.88;;;4.00;91.00;;;;;;5231149;28;20110;-66
2021/10/17 05:24:55;;;;;;;10.95;9.77;;;4.00;88.30;;;;;;5216298;28;20059;-67
2021/10/17 05:27:27;;;;;;;10.70;9.40;;;3.90;88.20;;;;;;5215243;28;20114;-67
2021/10/17 05:29:59;;;;;;;11.00;9.82;;;3.90;88.20;;;;;;5215031;28;20044;-67
2021/10/17 05:32:35;;;;;;;12.63;10.15;;;3.80;88.60;;;;;;5211727;28;20088;-67
2021/10/17 05:35:08;;;;;;;10.48;9.38;;;3.80;90.90;;;;;;5193685;28;20069;-67
2021/10/17 05:37:40;;;;;;;11.13;10.02;;;3.80;90.00;;;;;;5216782;28;20503;-67
2021/10/17 05:40:12;;;;;;;9.98;8.95;;;3.80;88.40;;;;;;5214944;28;20032;-68
2021/10/17 05:42:46;;;;;;;11.70;8.77;;;3.80;89.50;;;;;;5217877;28;20060;-67
2021/10/17 05:45:18;;;;;;;9.93;8.93;;;3.80;90.70;;;;;;5216453;28;20068;-67
2021/10/17 05:47:52;;;;;;;11.77;9.48;;;3.80;91.20;;;;;;5215417;28;20045;-67
2021/10/17 05:50:23;;;;;;;10.57;9.48;;;3.80;90.70;;;;;;5193792;28;20462;-66
2021/10/17 05:52:56;;;;;;;10.50;9.20;;;3.80;89.90;;;;;;5214769;28;20899;-67
2021/10/17 05:55:29;;;;;;;11.40;8.35;;;3.80;90.00;;;;;;5230636;28;20057;-67
2021/10/17 05:58:01;;;;;;;11.80;10.27;;;3.80;91.40;;;;;;5214185;28;20057;-67
2021/10/17 06:00:35;;;;;;;14.10;10.85;;;3.80;91.10;;;;;;5220840;28;20040;-67
2021/10/17 06:03:08;;;;;;;11.35;10.15;;;3.80;89.10;;;;;;5223559;28;20055;-67
2021/10/17 06:06:01;;;;;;;10.35;9.18;;;3.80;88.50;;;;;;5215360;28;20077;-67
2021/10/17 06:08:36;;;;;;;9.45;8.48;;;3.80;88.20;;;;;;5215899;28;20095;-67
2021/10/17 06:11:08;;;;;;;9.70;8.70;;;3.80;87.90;;;;;;5213055;28;20071;-68
2021/10/17 06:13:40;;;;;;;10.18;8.65;;;3.80;87.90;;;;;;5216915;28;20124;-67
2021/10/17 06:16:13;;;;;;;9.13;7.85;;;3.80;87.70;;;;;;5228661;28;20039;-68
2021/10/17 06:18:45;;;;;;;12.00;8.80;;;3.80;88.30;;;;;;5208085;28;20487;-68
2021/10/17 06:21:18;;;;;;;10.07;8.80;;;3.90;90.70;;;;;;5212296;28;20044;-68
2021/10/17 06:23:51;;;;;;;10.25;9.10;;;4.00;90.80;;;;;;5214470;28;20041;-67
2021/10/17 06:26:22;;;;;;;9.55;8.55;;;4.10;91.10;;;;;;5195765;28;20901;-67
2021/10/17 06:28:55;;;;;;;9.77;8.77;;;4.20;90.70;;;;;;5216383;28;20052;-67
2021/10/17 06:31:27;;;;;;;10.15;9.15;;;4.20;89.40;;;;;;5228287;28;20148;-68
2021/10/17 06:34:02;;;;;;;9.63;8.70;;;4.30;87.30;;;;;;5214400;28;20041;-67
2021/10/17 06:36:35;;;;;;;9.45;8.52;;;4.30;86.20;;;;;;5211920;28;20438;-67
2021/10/17 06:39:08;;;;;;;9.20;8.27;;;4.40;86.60;;;;;;5194424;28;20063;-67
2021/10/17 06:41:40;;;;;;;11.27;8.68;;;4.40;86.20;;;;;;5213462;28;20099;-67
2021/10/17 06:44:20;;;;;;;10.50;8.90;;;4.40;85.90;;;;;;5191383;28;20049;-67
2021/10/17 06:46:56;;;;;;;9.43;8.43;;;4.50;86.30;;;;;;5213399;28;20469;-67
2021/10/17 06:49:28;;;;;;;9.95;8.95;;;4.60;86.20;;;;;;5221230;28;20041;-68
2021/10/17 06:52:05;;;;;;;10.32;9.23;;;4.60;86.40;;;;;;5222547;28;20053;-67
2021/10/17 06:54:37;;;;;;;11.13;9.30;;;4.70;87.30;;;;;;5223705;28;20037;-67
2021/10/17 06:57:09;;;;;;;8.77;7.88;;;4.80;86.50;;;;;;5212761;28;20117;-67
2021/10/17 06:59:41;;;;;;;9.38;8.38;;;4.90;86.40;;;;;;5215060;28;20739;-68
2021/10/17 07:02:13;;;;;;;11.98;9.18;;;5.00;86.00;;;;;;5213026;28;20187;-68
2021/10/17 07:04:46;;;;;;;10.45;9.45;;;5.10;86.10;;;;;;5230601;28;20040;-67
2021/10/17 07:07:18;;;;;;;12.63;9.27;;;5.20;86.30;;;;;;5213100;28;20052;-67
2021/10/17 07:09:50;;;;;;;9.90;8.90;;;5.20;86.20;;;;;;5205801;28;20044;-67
2021/10/17 07:12:41;;;;;;;11.00;9.10;;;5.40;86.40;;;;;;5208642;28;20612;-67
2021/10/17 07:15:13;;;;;;;10.75;9.63;;;5.40;87.30;;;;;;5213475;28;20183;-68
2021/10/17 07:17:59;;;;;;;10.00;9.00;;;5.30;87.80;;;;;;5221400;28;20672;-67
2021/10/17 07:20:37;;;;;;;11.05;9.95;;;5.40;87.60;;;;;;5214247;28;20411;-66
2021/10/17 07:23:09;;;;;;;11.13;10.02;;;5.50;88.00;;;;;;5197826;28;20104;-68
2021/10/17 07:25:42;;;;;;;10.68;9.32;;;5.70;89.50;;;;;;5219151;28;20632;-67
2021/10/17 07:28:14;;;;;;;9.60;8.63;;;5.70;88.30;;;;;;5213517;28;20099;-67
2021/10/17 07:31:04;;;;;;;9.48;8.48;;;5.90;88.30;;;;;;5204573;28;20033;-67
2021/10/17 07:34:02;;;;;;;9.75;7.82;;;6.00;88.10;;;;;;5215149;28;20052;-67
2021/10/17 07:36:34;;;;;;;9.18;8.27;;;6.20;87.70;;;;;;5213248;28;20123;-66
2021/10/17 07:39:15;;;;;;;9.70;8.80;;;6.30;87.00;;;;;;5213859;28;20515;-68
2021/10/17 07:41:52;;;;;;;10.50;9.43;;;6.50;87.30;;;;;;5205693;28;20044;-67
2021/10/17 07:44:24;;;;;;;9.60;8.70;;;6.70;86.40;;;;;;5206637;28;20576;-67
2021/10/17 07:47:04;;;;;;;10.95;9.95;;;6.80;86.60;;;;;;5213052;28;20140;-66
2021/10/17 07:49:40;;;;;;;10.93;9.82;;;7.00;86.00;;;;;;5215234;28;20733;-66
2021/10/17 07:52:19;;;;;;;12.32;10.88;;;7.10;85.20;;;;;;5223705;28;20199;-67
2021/10/17 07:54:51;;;;;;;11.63;10.52;;;7.30;85.40;;;;;;5225572;28;20051;-67
2021/10/17 07:57:45;;;;;;;10.18;9.18;;;7.50;85.30;;;;;;5233640;28;20052;-68
2021/10/17 08:00:26;;;;;;;9.63;8.70;;;7.60;84.90;;;;;;5225258;28;20499;-68
2021/10/17 08:03:17;;;;;;;9.70;8.60;;;7.60;84.50;;;;;;5218823;28;20041;-67
2021/10/17 08:06:01;;;;;;;10.13;9.13;;;7.70;84.40;;;;;;5199212;28;20118;-68
2021/10/17 08:08:34;;;;;;;10.20;9.23;;;7.70;84.70;;;;;;5218426;28;20420;-67
2021/10/17 08:11:07;;;;;;;9.63;8.73;;;7.80;84.30;;;;;;5216797;28;20126;-68
2021/10/17 08:13:39;;;;;;;9.55;8.52;;;8.00;83.80;;;;;;5218476;28;20040;-67
2021/10/17 08:16:13;;;;;;;9.73;8.82;;;8.10;84.10;;;;;;5233138;28;20751;-68
2021/10/17 08:18:53;;;;;;;10.20;9.30;;;8.30;84.50;;;;;;5233666;28;20049;-69
2021/10/17 08:21:25;;;;;;;10.90;9.90;;;8.40;84.40;;;;;;5207956;28;20037;-68
2021/10/17 08:24:10;;;;;;;10.27;9.38;;;8.70;84.60;;;;;;5224491;28;20458;-67
2021/10/17 08:26:47;;;;;;;10.57;9.57;;;8.90;84.30;;;;;;5207683;28;20139;-67
2021/10/17 08:29:26;;;;;;;10.65;9.65;;;9.00;82.70;;;;;;5216307;28;20049;-67
2021/10/17 08:31:59;;;;;;;11.13;10.13;;;9.20;83.20;;;;;;5233167;28;20079;-67
2021/10/17 08:34:35;;;;;;;11.85;10.75;;;9.40;84.40;;;;;;5217350;28;20418;-67
2021/10/17 08:37:07;;;;;;;11.50;10.40;;;9.50;82.50;;;;;;5215948;28;20749;-68
2021/10/17 08:40:06;;;;;;;11.10;10.10;;;9.70;81.30;;;;;;5202680;28;20053;-68
2021/10/17 08:42:58;;;;;;;11.77;10.60;;;9.80;81.50;;;;;;5219118;28;20044;-67
2021/10/17 08:45:38;;;;;;;11.38;10.38;;;10.00;81.00;;;;;;5216164;28;20520;-67
2021/10/17 08:48:13;;;;;;;11.20;10.20;;;10.10;80.30;;;;;;5207427;28;20051;-67
2021/10/17 08:50:56;;;;;;;10.65;9.65;;;10.30;80.10;;;;;;5201577;28;20045;-67
2021/10/17 08:53:35;;;;;;;10.20;9.30;;;10.40;77.10;;;;;;5216678;28;20040;-67
2021/10/17 08:56:14;;;;;;;10.27;9.38;;;10.60;79.90;;;;;;5215342;28;20045;-68
2021/10/17 08:58:48;;;;;;;9.82;8.95;;;10.80;80.10;;;;;;5206222;28;20061;-67
2021/10/17 09:01:33;;;;;;;9.40;8.60;;;10.80;74.60;;;;;;5215684;28;20041;-68
2021/10/17 09:04:09;;;;;;;10.20;9.30;;;11.00;78.70;;;;;;5215343;28;20051;-70
2021/10/17 09:06:52;;;;;;;9.48;8.65;;;11.10;78.70;;;;;;5231806;28;20055;-69
2021/10/17 09:09:26;;;;;;;10.30;9.40;;;11.20;74.80;;;;;;5215552;28;20072;-69
2021/10/17 09:12:04;;;;;;;10.27;9.48;;;11.40;74.80;;;;;;5209005;28;20048;-69
2021/10/17 09:14:37;;;;;;;10.13;9.30;;;11.50;77.20;;;;;;5217274;28;20037;-69
2021/10/17 09:17:09;;;;;;;10.05;9.25;;;11.60;78.00;;;;;;5216758;28;20051;-70
2021/10/17 09:19:41;;;;;;;10.25;9.35;;;11.70;72.90;;;;;;5215632;28;20840;-71
2021/10/17 09:22:13;;;;;;;10.00;9.20;;;11.80;74.90;;;;;;5216070;28;20055;-69
2021/10/17 09:24:49;;;;;;;10.18;9.30;;;11.90;76.20;;;;;;5217217;28;21027;-69
2021/10/17 09:27:23;;;;;;;10.80;9.90;;;12.10;73.90;;;;;;5216741;28;20158;-68
2021/10/17 09:29:55;;;;;;;11.18;10.23;;;12.20;76.30;;;;;;5216126;28;20048;-68
2021/10/17 09:32:28;;;;;;;11.13;10.23;;;12.30;74.30;;;;;;5216331;28;20059;-67
2021/10/17 09:35:06;;;;;;;11.38;10.38;;;12.40;76.00;;;;;;5214529;28;22284;-68
2021/10/17 09:38:01;;;;;;;12.88;11.77;;;12.50;73.10;;;;;;5215405;28;20052;-68
2021/10/17 09:40:49;;;;;;;12.10;11.10;;;12.50;74.70;;;;;;5214608;28;20052;-69
2021/10/17 09:43:33;;;;;;;12.77;11.68;;;12.60;74.20;;;;;;5214779;28;20182;-71
2021/10/17 09:46:16;;;;;;;13.25;12.00;;;12.70;75.20;;;;;;5204855;28;20056;-68
2021/10/17 09:48:48;;;;;;;13.25;12.05;;;12.80;74.30;;;;;;5215870;28;20041;-71
2021/10/17 09:51:29;;;;;;;14.00;12.80;;;12.90;76.20;;;;;;5216220;28;20045;-69
2021/10/17 09:54:01;;;;;;;13.73;12.52;;;13.00;73.90;;;;;;5215766;28;20134;-71
2021/10/17 09:56:37;;;;;;;14.05;12.85;;;13.00;75.60;;;;;;5216874;28;20052;-70
2021/10/17 09:59:11;;;;;;;13.65;12.55;;;13.10;75.50;;;;;;5208528;28;20045;-69
2021/10/17 10:01:44;;;;;;;14.77;13.40;;;13.20;74.60;;;;;;5216965;28;20040;-69
2021/10/17 10:04:16;;;;;;;15.32;14.02;;;13.30;75.80;;;;;;5215017;28;20048;-71
2021/10/17 10:06:48;;;;;;;14.65;13.32;;;13.40;74.30;;;;;;5214120;28;20053;-70
2021/10/17 10:09:22;;;;;;;14.75;13.45;;;13.40;74.20;;;;;;5215748;28;20982;-68
2021/10/17 10:11:54;;;;;;;14.82;13.43;;;13.40;73.10;;;;;;5216656;28;20487;-71
2021/10/17 10:14:26;;;;;;;13.93;12.73;;;13.50;74.30;;;;;;5214643;28;20429;-69
2021/10/17 10:17:00;;;;;;;13.35;12.15;;;13.60;73.30;;;;;;5215307;28;20483;-68
2021/10/17 10:19:34;;;;;;;14.88;13.65;;;13.60;74.30;;;;;;5214601;28;20495;-69
2021/10/17 10:22:06;;;;;;;14.48;13.27;;;13.60;74.00;;;;;;5216543;28;20077;-70
2021/10/17 10:24:38;;;;;;;14.52;13.32;;;13.70;73.40;;;;;;5214880;28;20051;-69
2021/10/17 10:27:13;;;;;;;14.18;12.98;;;13.70;74.20;;;;;;5207584;28;20050;-70
2021/10/17 10:29:45;;;;;;;14.63;13.43;;;13.70;72.10;;;;;;5212526;28;20037;-68
2021/10/17 10:32:22;;;;;;;14.43;13.23;;;13.80;73.10;;;;;;5213492;28;20052;-69
2021/10/17 10:34:56;;;;;;;13.65;12.52;;;13.80;72.50;;;;;;5214696;28;20076;-68
2021/10/17 10:37:29;;;;;;;13.70;12.60;;;13.90;72.70;;;;;;5214303;28;20057;-69
2021/10/17 10:40:04;;;;;;;13.73;12.63;;;14.00;73.40;;;;;;5212991;28;20148;-68
2021/10/17 10:42:41;;;;;;;13.80;12.60;;;14.00;69.40;;;;;;5216057;28;20517;-69
2021/10/17 10:45:37;;;;;;;13.52;12.43;;;14.10;72.30;;;;;;5214209;28;20059;-68
2021/10/17 10:48:12;;;;;;;13.13;12.05;;;14.20;71.70;;;;;;5206818;28;20139;-70
2021/10/17 10:50:49;;;;;;;13.23;12.13;;;14.20;71.00;;;;;;5214489;28;20144;-67
2021/10/17 10:53:51;;;;;;;13.38;12.27;;;14.30;69.60;;;;;;5213511;28;20136;-69
2021/10/17 10:56:45;;;;;;;12.82;11.77;;;14.30;70.20;;;;;;5214105;28;20053;-69
2021/10/17 10:59:21;;;;;;;13.57;12.48;;;14.40;70.40;;;;;;5215356;28;20037;-69
2021/10/17 11:02:11;;;;;;;13.57;12.57;;;14.50;68.70;;;;;;5216491;28;20656;-69
2021/10/17 11:04:44;;;;;;;14.40;13.30;;;14.50;70.30;;;;;;5215585;28;20482;-69
2021/10/17 11:07:27;;;;;;;13.80;12.75;;;14.50;68.50;;;;;;5214053;28;20060;-69
2021/10/17 11:10:27;;;;;;;13.90;12.80;;;14.60;69.10;;;;;;5215752;28;20124;-69
2021/10/17 11:13:01;;;;;;;13.70;12.32;;;14.70;69.00;;;;;;5213837;28;20481;-70
2021/10/17 11:15:36;;;;;;;13.20;12.10;;;14.70;68.10;;;;;;5214819;28;20139;-69
2021/10/17 11:18:10;;;;;;;13.02;12.02;;;14.80;68.30;;;;;;5229771;28;20837;-70
2021/10/17 11:20:46;;;;;;;12.88;11.88;;;14.80;68.90;;;;;;5215193;28;20123;-69
2021/10/17 11:23:23;;;;;;;12.65;11.75;;;14.80;68.00;;;;;;5214614;28;20045;-69
2021/10/17 11:26:00;;;;;;;12.52;11.63;;;14.80;66.20;;;;;;5214181;28;20118;-69
2021/10/17 11:28:34;;;;;;;12.57;11.68;;;14.90;64.50;;;;;;5216023;28;20527;-69
2021/10/17 11:31:14;;;;;;;12.52;11.63;;;14.90;62.20;;;;;;5213464;28;20511;-69
2021/10/17 11:33:47;;;;;;;13.07;11.98;;;14.90;63.70;;;;;;5213209;28;20102;-68
2021/10/17 11:36:20;;;;;;;12.50;11.60;;;14.90;64.30;;;;;;5213370;28;20537;-68
2021/10/17 11:38:54;;;;;;;12.45;11.45;;;14.90;62.80;;;;;;5213197;28;20099;-68
2021/10/17 11:41:27;;;;;;;11.88;10.98;;;14.90;62.10;;;;;;5212579;28;20503;-69
2021/10/17 11:43:59;;;;;;;12.40;11.50;;;15.00;64.10;;;;;;5213091;28;20060;-68
2021/10/17 11:46:31;;;;;;;11.93;11.02;;;15.00;64.30;;;;;;5214283;28;20810;-69
2021/10/17 11:49:12;;;;;;;12.00;11.10;;;15.00;61.90;;;;;;5212936;28;20048;-69
2021/10/17 11:51:44;;;;;;;12.30;11.27;;;15.00;61.60;;;;;;5214874;28;20128;-69
2021/10/17 11:54:15;;;;;;;12.57;11.57;;;15.00;61.60;;;;;;5213040;28;20049;-68
2021/10/17 11:56:56;;;;;;;12.65;11.65;;;15.00;59.60;;;;;;5212837;28;20045;-68
2021/10/17 11:59:28;;;;;;;12.40;11.50;;;15.00;60.50;;;;;;5214952;28;20194;-68
2021/10/17 12:02:00;;;;;;;12.80;11.90;;;15.00;60.30;;;;;;5213543;28;20488;-68
2021/10/17 12:04:43;;;;;;;12.82;11.85;;;15.00;59.80;;;;;;5213941;28;20055;-68
2021/10/17 12:07:16;;;;;;;12.38;11.48;;;15.10;62.00;;;;;;5212745;28;20152;-68
2021/10/17 12:09:48;;;;;;;12.68;11.75;;;15.10;62.10;;;;;;5215413;28;20064;-68
2021/10/17 12:12:24;;;;;;;12.05;11.15;;;15.10;61.50;;;;;;5213504;28;20068;-68
2021/10/17 12:15:08;;;;;;;11.45;10.63;;;15.10;61.30;;;;;;5215227;28;20040;-68
2021/10/17 12:17:40;;;;;;;11.90;11.00;;;15.10;60.80;;;;;;5211832;28;20704;-67
2021/10/17 12:20:14;;;;;;;12.75;11.77;;;15.20;61.30;;;;;;5212081;28;20044;-67
2021/10/17 12:22:48;;;;;;;12.60;11.60;;;15.10;60.70;;;;;;5213882;28;20211;-68
2021/10/17 12:25:40;;;;;;;13.27;12.27;;;15.20;62.50;;;;;;5214059;28;20033;-69
2021/10/17 12:28:16;;;;;;;13.32;12.32;;;15.30;60.10;;;;;;5214065;28;20045;-68
2021/10/17 12:30:51;;;;;;;12.65;11.75;;;15.30;62.30;;;;;;5211419;28;20052;-68
2021/10/17 12:33:29;;;;;;;12.90;11.93;;;15.20;61.20;;;;;;5213664;28;20120;-68
2021/10/17 12:36:03;;;;;;;12.82;11.82;;;15.20;61.90;;;;;;5213323;28;20142;-69
2021/10/17 12:38:36;;;;;;;13.05;12.02;;;15.20;62.60;;;;;;5216395;28;20079;-69
2021/10/17 12:41:09;;;;;;;13.10;12.10;;;15.20;61.20;;;;;;5217370;28;20573;-68
2021/10/17 12:43:48;;;;;;;12.82;11.82;;;15.20;61.50;;;;;;5216910;28;20076;-70
2021/10/17 12:46:21;;;;;;;12.52;11.52;;;15.20;61.50;;;;;;5215589;28;20044;-69
2021/10/17 12:48:53;;;;;;;13.43;12.32;;;15.10;61.30;;;;;;5217859;28;20132;-68
2021/10/17 12:51:50;;;;;;;12.70;11.80;;;15.10;62.40;;;;;;5216647;28;20051;-68
2021/10/17 12:54:30;;;;;;;12.57;11.57;;;15.00;61.90;;;;;;5211913;28;20467;-68
2021/10/17 12:57:11;;;;;;;12.95;12.05;;;15.00;59.80;;;;;;5209030;28;20056;-67
2021/10/17 13:00:13;;;;;;;13.15;12.15;;;14.90;61.20;;;;;;5217883;28;20132;-68
2021/10/17 13:02:45;;;;;;;13.25;12.25;;;15.00;62.70;;;;;;5208351;28;20053;-69
2021/10/17 13:05:20;;;;;;;12.93;11.95;;;15.00;62.10;;;;;;5212604;28;20409;-69
2021/10/17 13:08:03;;;;;;;12.85;11.90;;;15.00;62.20;;;;;;5214366;28;20052;-69
2021/10/17 13:10:35;;;;;;;13.02;12.02;;;15.00;63.00;;;;;;5213446;28;20437;-67
2021/10/17 13:13:23;;;;;;;12.85;11.95;;;15.00;62.80;;;;;;5216577;28;20098;-68
2021/10/17 13:15:56;;;;;;;13.23;12.05;;;15.00;62.00;;;;;;5207244;28;20053;-68
2021/10/17 13:18:32;;;;;;;12.93;11.90;;;14.90;62.00;;;;;;5217940;28;20060;-68
2021/10/17 13:21:03;;;;;;;13.07;12.07;;;15.00;62.10;;;;;;5216381;28;20084;-68
2021/10/17 13:23:35;;;;;;;12.13;11.23;;;14.90;60.90;;;;;;5218263;28;20048;-68
2021/10/17 13:26:07;;;;;;;13.77;12.57;;;14.90;62.50;;;;;;5214136;28;20051;-68